LGS2071 EBBR-LEBB
Flight info
| Callsign | LGS2071 |
|---|---|
| Flight time | N/A |
| Altitude | 33000 |
| Route | CIV N872 MEDIL RESMI UN857 DISAK DIRMO ARTAX BEBIX LMG UVELI OSMOB ARVID T424 PPN M601 CEGAM |
| Aircraft | A320/M-SDE3FGHIRWY/LB1 |
Departure
| Time | 2026-05-01 10:00 |
|---|---|
| Airport | Brussels Airport (EBBR) |
Arrival
| Time | N/A |
|---|---|
| Airport | Bilbao Airport (LEBB) |
| Time | Latitude | Longitude | Altitude | Speed | Heading |
|---|---|---|---|---|---|
| 2026-05-01 09:37 | 50.90177 | 4.47754 | 121 ft | 0 kts | 155° |
| 2026-05-01 09:46 | 50.90183 | 4.47750 | 117 ft | 4 kts | 154° |
| 2026-05-01 09:46 | 50.90207 | 4.47730 | 118 ft | 4 kts | 147° |
| 2026-05-01 09:46 | 50.90228 | 4.47705 | 117 ft | 4 kts | 130° |
| 2026-05-01 09:47 | 50.90239 | 4.47671 | 116 ft | 3 kts | 73° |
| 2026-05-01 09:47 | 50.90236 | 4.47659 | 117 ft | 0 kts | 65° |
| 2026-05-01 09:51 | 50.90239 | 4.47667 | 116 ft | 3 kts | 65° |
| 2026-05-01 09:51 | 50.90260 | 4.47741 | 120 ft | 11 kts | 65° |
| 2026-05-01 09:51 | 50.90303 | 4.47890 | 119 ft | 18 kts | 66° |
| 2026-05-01 09:52 | 50.90363 | 4.48100 | 120 ft | 24 kts | 65° |
| 2026-05-01 09:52 | 50.90437 | 4.48358 | 121 ft | 28 kts | 66° |
| 2026-05-01 09:52 | 50.90522 | 4.48653 | 119 ft | 30 kts | 63° |
| 2026-05-01 09:52 | 50.90604 | 4.48936 | 117 ft | 27 kts | 65° |
| 2026-05-01 09:53 | 50.90644 | 4.49102 | 120 ft | 14 kts | 94° |
| 2026-05-01 09:53 | 50.90572 | 4.49187 | 120 ft | 13 kts | 155° |
| 2026-05-01 09:53 | 50.90486 | 4.49250 | 120 ft | 15 kts | 155° |
| 2026-05-01 09:53 | 50.90390 | 4.49320 | 121 ft | 15 kts | 155° |
| 2026-05-01 09:54 | 50.90303 | 4.49403 | 122 ft | 15 kts | 163° |
| 2026-05-01 09:54 | 50.90208 | 4.49373 | 127 ft | 14 kts | 195° |
| 2026-05-01 09:54 | 50.90119 | 4.49337 | 130 ft | 13 kts | 194° |
| 2026-05-01 09:54 | 50.90019 | 4.49297 | 132 ft | 18 kts | 194° |
| 2026-05-01 09:55 | 50.89876 | 4.49240 | 139 ft | 23 kts | 194° |
| 2026-05-01 09:55 | 50.89726 | 4.49179 | 147 ft | 21 kts | 194° |
| 2026-05-01 09:55 | 50.89607 | 4.49096 | 154 ft | 18 kts | 214° |
| 2026-05-01 09:55 | 50.89498 | 4.49038 | 158 ft | 16 kts | 193° |
| 2026-05-01 09:56 | 50.89395 | 4.49000 | 161 ft | 16 kts | 193° |
| 2026-05-01 09:56 | 50.89297 | 4.48890 | 165 ft | 21 kts | 250° |
| 2026-05-01 09:56 | 50.89236 | 4.48645 | 164 ft | 25 kts | 249° |
| 2026-05-01 09:56 | 50.89176 | 4.48381 | 164 ft | 26 kts | 255° |
| 2026-05-01 09:57 | 50.89118 | 4.48136 | 164 ft | 23 kts | 250° |
| 2026-05-01 09:57 | 50.89074 | 4.47947 | 164 ft | 15 kts | 240° |
| 2026-05-01 09:57 | 50.89001 | 4.47903 | 171 ft | 8 kts | 166° |
| 2026-05-01 09:57 | 50.88969 | 4.47920 | 174 ft | 1 kts | 160° |
| 2026-05-01 09:58 | 50.88960 | 4.47929 | 175 ft | 2 kts | 147° |
| 2026-05-01 09:58 | 50.88950 | 4.47961 | 176 ft | 5 kts | 115° |
| 2026-05-01 09:58 | 50.88933 | 4.48061 | 178 ft | 14 kts | 99° |
| 2026-05-01 09:58 | 50.88944 | 4.48218 | 179 ft | 15 kts | 70° |
| 2026-05-01 09:59 | 50.88998 | 4.48449 | 179 ft | 45 kts | 70° |
| 2026-05-01 09:59 | 50.89188 | 4.49273 | 176 ft | 111 kts | 70° |
| 2026-05-01 09:59 | 50.89519 | 4.50677 | 175 ft | 159 kts | 67° |
| 2026-05-01 09:59 | 50.89939 | 4.52419 | 643 ft | 167 kts | 72° |
| 2026-05-01 10:00 | 50.90343 | 4.54142 | 1448 ft | 167 kts | 74° |
| 2026-05-01 10:00 | 50.90640 | 4.55915 | 2152 ft | 171 kts | 99° |
| 2026-05-01 10:00 | 50.90181 | 4.57675 | 2685 ft | 184 kts | 137° |
| 2026-05-01 10:00 | 50.89024 | 4.58726 | 3480 ft | 206 kts | 171° |
| 2026-05-01 10:01 | 50.87571 | 4.58360 | 4146 ft | 234 kts | 209° |
| 2026-05-01 10:01 | 50.86325 | 4.56503 | 4991 ft | 258 kts | 230° |
| 2026-05-01 10:01 | 50.85304 | 4.54088 | 6089 ft | 269 kts | 236° |
| 2026-05-01 10:01 | 50.84361 | 4.51480 | 7269 ft | 276 kts | 237° |
| 2026-05-01 10:02 | 50.83419 | 4.48802 | 8476 ft | 281 kts | 237° |
| 2026-05-01 10:02 | 50.82447 | 4.46101 | 9679 ft | 285 kts | 236° |
| 2026-05-01 10:02 | 50.81431 | 4.43369 | 10731 ft | 294 kts | 235° |
| 2026-05-01 10:02 | 50.80324 | 4.40491 | 11289 ft | 319 kts | 234° |
| 2026-05-01 10:03 | 50.79120 | 4.37431 | 12000 ft | 334 kts | 234° |
| 2026-05-01 10:03 | 50.77875 | 4.34295 | 12927 ft | 340 kts | 234° |
| 2026-05-01 10:03 | 50.76603 | 4.31103 | 13913 ft | 346 kts | 234° |
| 2026-05-01 10:03 | 50.75307 | 4.27864 | 14800 ft | 351 kts | 234° |
| 2026-05-01 10:04 | 50.73992 | 4.24577 | 15667 ft | 356 kts | 234° |
| 2026-05-01 10:04 | 50.72680 | 4.21294 | 16510 ft | 360 kts | 234° |
| 2026-05-01 10:04 | 50.71338 | 4.17933 | 17356 ft | 364 kts | 234° |
| 2026-05-01 10:04 | 50.69980 | 4.14539 | 18198 ft | 368 kts | 234° |
| 2026-05-01 10:05 | 50.68604 | 4.11108 | 18965 ft | 372 kts | 234° |
| 2026-05-01 10:05 | 50.67213 | 4.07640 | 19657 ft | 376 kts | 235° |
| 2026-05-01 10:05 | 50.65804 | 4.04134 | 20337 ft | 380 kts | 235° |
| 2026-05-01 10:05 | 50.64379 | 4.00598 | 21000 ft | 384 kts | 235° |
| 2026-05-01 10:06 | 50.62937 | 3.97024 | 21633 ft | 388 kts | 235° |
| 2026-05-01 10:06 | 50.61480 | 3.93418 | 22225 ft | 392 kts | 235° |
| 2026-05-01 10:06 | 50.60009 | 3.89777 | 22790 ft | 396 kts | 235° |
| 2026-05-01 10:06 | 50.58371 | 3.86292 | 23332 ft | 397 kts | 225° |
| 2026-05-01 10:07 | 50.56352 | 3.83340 | 23834 ft | 397 kts | 214° |
| 2026-05-01 10:07 | 50.54023 | 3.81028 | 24250 ft | 397 kts | 204° |
| 2026-05-01 10:07 | 50.51502 | 3.79262 | 24670 ft | 398 kts | 201° |
| 2026-05-01 10:07 | 50.48950 | 3.77532 | 25079 ft | 400 kts | 201° |
| 2026-05-01 10:08 | 50.43819 | 3.74036 | 25849 ft | 404 kts | 201° |
| 2026-05-01 10:08 | 50.41724 | 3.72606 | 26148 ft | 406 kts | 201° |
| 2026-05-01 10:08 | 50.39092 | 3.70810 | 26518 ft | 408 kts | 201° |
| 2026-05-01 10:09 | 50.36482 | 3.69039 | 26873 ft | 410 kts | 201° |
| 2026-05-01 10:09 | 50.33975 | 3.67282 | 27210 ft | 413 kts | 205° |
| 2026-05-01 10:09 | 50.31485 | 3.65138 | 27558 ft | 415 kts | 206° |
| 2026-05-01 10:09 | 50.28957 | 3.62935 | 27926 ft | 417 kts | 206° |
| 2026-05-01 10:10 | 50.26411 | 3.60718 | 28248 ft | 420 kts | 206° |
| 2026-05-01 10:10 | 50.23852 | 3.58494 | 28588 ft | 422 kts | 206° |
| 2026-05-01 10:10 | 50.18696 | 3.54025 | 29262 ft | 426 kts | 206° |
| 2026-05-01 10:11 | 50.16095 | 3.51777 | 29587 ft | 428 kts | 206° |